sensor_id;sensor_type;location;lat;lon;timestamp;temperature;humidity
46552;DHT22;32278;51.810;4.712;2022-07-29T00:00:28;17.10;99.90
46552;DHT22;32278;51.810;4.712;2022-07-29T00:02:54;17.10;99.90
46552;DHT22;32278;51.810;4.712;2022-07-29T00:05:20;17.10;99.90
46552;DHT22;32278;51.810;4.712;2022-07-29T00:07:45;17.00;99.90
46552;DHT22;32278;51.810;4.712;2022-07-29T00:10:11;17.00;99.90
46552;DHT22;32278;51.810;4.712;2022-07-29T00:12:37;17.10;99.90
46552;DHT22;32278;51.810;4.712;2022-07-29T00:15:03;17.20;99.90
46552;DHT22;32278;51.810;4.712;2022-07-29T00:17:29;17.10;99.90
46552;DHT22;32278;51.810;4.712;2022-07-29T00:19:54;17.10;99.90
46552;DHT22;32278;51.810;4.712;2022-07-29T00:22:20;17.00;99.90
46552;DHT22;32278;51.810;4.712;2022-07-29T00:24:48;16.90;99.90
46552;DHT22;32278;51.810;4.712;2022-07-29T00:27:14;16.90;99.90
46552;DHT22;32278;51.810;4.712;2022-07-29T00:29:39;16.90;99.90
46552;DHT22;32278;51.810;4.712;2022-07-29T00:32:05;16.90;99.90
46552;DHT22;32278;51.810;4.712;2022-07-29T00:34:31;16.80;99.90
46552;DHT22;32278;51.810;4.712;2022-07-29T00:37:15;16.90;99.90
46552;DHT22;32278;51.810;4.712;2022-07-29T00:39:41;16.80;99.90
46552;DHT22;32278;51.810;4.712;2022-07-29T00:42:07;16.70;99.90
46552;DHT22;32278;51.810;4.712;2022-07-29T00:44:38;16.70;99.90
46552;DHT22;32278;51.810;4.712;2022-07-29T00:47:03;16.60;99.90
46552;DHT22;32278;51.810;4.712;2022-07-29T00:49:29;16.60;99.90
46552;DHT22;32278;51.810;4.712;2022-07-29T00:51:55;16.60;99.90
46552;DHT22;32278;51.810;4.712;2022-07-29T00:54:21;16.60;99.90
46552;DHT22;32278;51.810;4.712;2022-07-29T00:56:46;16.60;99.90
46552;DHT22;32278;51.810;4.712;2022-07-29T00:59:12;16.60;99.90
46552;DHT22;32278;51.810;4.712;2022-07-29T01:01:37;16.50;99.90
46552;DHT22;32278;51.810;4.712;2022-07-29T01:04:03;16.50;99.90
46552;DHT22;32278;51.810;4.712;2022-07-29T01:06:30;16.40;99.90
46552;DHT22;32278;51.810;4.712;2022-07-29T01:08:56;16.50;99.90
46552;DHT22;32278;51.810;4.712;2022-07-29T01:11:22;16.60;99.90
46552;DHT22;32278;51.810;4.712;2022-07-29T01:13:47;16.50;99.90
46552;DHT22;32278;51.810;4.712;2022-07-29T01:16:20;16.70;99.90
46552;DHT22;32278;51.810;4.712;2022-07-29T01:18:49;16.60;99.90
46552;DHT22;32278;51.810;4.712;2022-07-29T01:27:04;16.50;99.90
46552;DHT22;32278;51.810;4.712;2022-07-29T01:29:40;16.40;99.90
46552;DHT22;32278;51.810;4.712;2022-07-29T01:34:40;16.50;99.90
46552;DHT22;32278;51.810;4.712;2022-07-29T01:37:18;16.40;99.90
46552;DHT22;32278;51.810;4.712;2022-07-29T01:39:46;16.40;99.90
46552;DHT22;32278;51.810;4.712;2022-07-29T01:44:45;16.40;99.90
46552;DHT22;32278;51.810;4.712;2022-07-29T01:47:19;16.50;99.90
46552;DHT22;32278;51.810;4.712;2022-07-29T01:49:47;16.50;99.90
46552;DHT22;32278;51.810;4.712;2022-07-29T01:52:27;16.50;99.90
46552;DHT22;32278;51.810;4.712;2022-07-29T01:54:59;16.50;99.90
46552;DHT22;32278;51.810;4.712;2022-07-29T01:57:29;16.50;99.90
46552;DHT22;32278;51.810;4.712;2022-07-29T01:59:57;16.50;99.90
46552;DHT22;32278;51.810;4.712;2022-07-29T02:02:24;16.60;99.90
46552;DHT22;32278;51.810;4.712;2022-07-29T02:04:50;16.50;99.90
46552;DHT22;32278;51.810;4.712;2022-07-29T02:07:21;16.60;99.90
46552;DHT22;32278;51.810;4.712;2022-07-29T02:09:48;16.50;99.90
46552;DHT22;32278;51.810;4.712;2022-07-29T02:12:16;16.40;99.90
46552;DHT22;32278;51.810;4.712;2022-07-29T02:14:50;16.40;99.90
46552;DHT22;32278;51.810;4.712;2022-07-29T02:17:22;16.30;99.90
46552;DHT22;32278;51.810;4.712;2022-07-29T02:19:49;16.30;99.90
46552;DHT22;32278;51.810;4.712;2022-07-29T02:22:16;16.30;99.90
46552;DHT22;32278;51.810;4.712;2022-07-29T02:24:44;16.30;99.90
46552;DHT22;32278;51.810;4.712;2022-07-29T02:27:10;16.30;99.90
46552;DHT22;32278;51.810;4.712;2022-07-29T02:29:38;16.40;99.90
46552;DHT22;32278;51.810;4.712;2022-07-29T02:32:05;16.40;99.90
46552;DHT22;32278;51.810;4.712;2022-07-29T02:34:33;16.50;99.90
46552;DHT22;32278;51.810;4.712;2022-07-29T02:36:59;16.30;99.90
46552;DHT22;32278;51.810;4.712;2022-07-29T02:39:26;16.30;99.90
46552;DHT22;32278;51.810;4.712;2022-07-29T02:41:59;16.40;99.90
46552;DHT22;32278;51.810;4.712;2022-07-29T02:44:26;16.30;99.90
46552;DHT22;32278;51.810;4.712;2022-07-29T02:50:23;16.10;99.90
46552;DHT22;32278;51.810;4.712;2022-07-29T02:52:27;16.10;99.90
46552;DHT22;32278;51.810;4.712;2022-07-29T02:54:56;16.00;99.90
46552;DHT22;32278;51.810;4.712;2022-07-29T02:57:33;16.10;99.90
46552;DHT22;32278;51.810;4.712;2022-07-29T03:00:04;16.10;99.90
46552;DHT22;32278;51.810;4.712;2022-07-29T03:02:45;16.10;99.90
46552;DHT22;32278;51.810;4.712;2022-07-29T03:05:16;16.10;99.90
46552;DHT22;32278;51.810;4.712;2022-07-29T03:07:47;16.00;99.90
46552;DHT22;32278;51.810;4.712;2022-07-29T03:10:13;16.00;99.90
46552;DHT22;32278;51.810;4.712;2022-07-29T03:12:39;16.00;99.90
46552;DHT22;32278;51.810;4.712;2022-07-29T03:15:06;16.00;99.90
46552;DHT22;32278;51.810;4.712;2022-07-29T03:17:32;15.90;99.90
46552;DHT22;32278;51.810;4.712;2022-07-29T03:19:58;15.90;99.90
46552;DHT22;32278;51.810;4.712;2022-07-29T03:22:25;16.00;99.90
46552;DHT22;32278;51.810;4.712;2022-07-29T03:24:50;16.00;99.90
46552;DHT22;32278;51.810;4.712;2022-07-29T03:27:16;16.00;99.90
46552;DHT22;32278;51.810;4.712;2022-07-29T03:29:41;16.00;99.90
46552;DHT22;32278;51.810;4.712;2022-07-29T03:32:07;16.00;99.90
46552;DHT22;32278;51.810;4.712;2022-07-29T03:34:33;15.90;99.90
46552;DHT22;32278;51.810;4.712;2022-07-29T03:36:58;16.00;99.90
46552;DHT22;32278;51.810;4.712;2022-07-29T03:39:27;16.00;99.90
46552;DHT22;32278;51.810;4.712;2022-07-29T03:41:55;15.90;99.90
46552;DHT22;32278;51.810;4.712;2022-07-29T03:44:22;16.00;99.90
46552;DHT22;32278;51.810;4.712;2022-07-29T03:46:50;15.90;99.90
46552;DHT22;32278;51.810;4.712;2022-07-29T03:49:18;15.90;99.90
46552;DHT22;32278;51.810;4.712;2022-07-29T03:51:45;15.90;99.90
46552;DHT22;32278;51.810;4.712;2022-07-29T03:54:11;15.90;99.90
46552;DHT22;32278;51.810;4.712;2022-07-29T03:56:40;15.90;99.90
46552;DHT22;32278;51.810;4.712;2022-07-29T03:59:08;15.90;99.90
46552;DHT22;32278;51.810;4.712;2022-07-29T04:01:34;15.90;99.90
46552;DHT22;32278;51.810;4.712;2022-07-29T04:04:01;15.80;99.90
46552;DHT22;32278;51.810;4.712;2022-07-29T04:06:27;15.80;99.90
46552;DHT22;32278;51.810;4.712;2022-07-29T04:08:52;15.90;99.90
46552;DHT22;32278;51.810;4.712;2022-07-29T04:11:18;15.80;99.90
46552;DHT22;32278;51.810;4.712;2022-07-29T04:13:44;15.80;99.90
46552;DHT22;32278;51.810;4.712;2022-07-29T04:16:09;15.80;99.90
46552;DHT22;32278;51.810;4.712;2022-07-29T04:18:35;15.90;99.90
46552;DHT22;32278;51.810;4.712;2022-07-29T04:21:00;16.00;99.90
46552;DHT22;32278;51.810;4.712;2022-07-29T04:23:27;16.00;99.90
46552;DHT22;32278;51.810;4.712;2022-07-29T04:25:53;15.90;99.90
46552;DHT22;32278;51.810;4.712;2022-07-29T04:28:19;15.80;99.90
46552;DHT22;32278;51.810;4.712;2022-07-29T04:30:44;15.90;99.90
46552;DHT22;32278;51.810;4.712;2022-07-29T04:33:10;15.80;99.90
46552;DHT22;32278;51.810;4.712;2022-07-29T04:35:37;15.80;99.90
46552;DHT22;32278;51.810;4.712;2022-07-29T04:38:04;15.70;99.90
46552;DHT22;32278;51.810;4.712;2022-07-29T04:40:30;15.70;99.90
46552;DHT22;32278;51.810;4.712;2022-07-29T04:42:56;15.70;99.90
46552;DHT22;32278;51.810;4.712;2022-07-29T04:45:21;15.70;99.90
46552;DHT22;32278;51.810;4.712;2022-07-29T04:47:47;15.80;99.90
46552;DHT22;32278;51.810;4.712;2022-07-29T04:50:13;15.80;99.90
46552;DHT22;32278;51.810;4.712;2022-07-29T04:52:38;15.90;99.90
46552;DHT22;32278;51.810;4.712;2022-07-29T04:55:05;15.80;99.90
46552;DHT22;32278;51.810;4.712;2022-07-29T04:57:30;15.80;99.90
46552;DHT22;32278;51.810;4.712;2022-07-29T04:59:56;15.80;99.90
46552;DHT22;32278;51.810;4.712;2022-07-29T05:02:21;15.70;99.90
46552;DHT22;32278;51.810;4.712;2022-07-29T05:04:47;15.60;99.90
46552;DHT22;32278;51.810;4.712;2022-07-29T05:07:13;15.60;99.90
46552;DHT22;32278;51.810;4.712;2022-07-29T05:09:39;15.60;99.90
46552;DHT22;32278;51.810;4.712;2022-07-29T05:12:05;15.70;99.90
46552;DHT22;32278;51.810;4.712;2022-07-29T05:14:31;15.70;99.90
46552;DHT22;32278;51.810;4.712;2022-07-29T05:16:56;15.70;99.90
46552;DHT22;32278;51.810;4.712;2022-07-29T05:19:22;15.80;99.90
46552;DHT22;32278;51.810;4.712;2022-07-29T05:21:48;15.90;99.90
46552;DHT22;32278;51.810;4.712;2022-07-29T05:24:14;15.90;99.90
46552;DHT22;32278;51.810;4.712;2022-07-29T05:26:40;16.00;99.90
46552;DHT22;32278;51.810;4.712;2022-07-29T05:29:05;15.90;99.90
46552;DHT22;32278;51.810;4.712;2022-07-29T05:31:31;15.80;99.90
46552;DHT22;32278;51.810;4.712;2022-07-29T05:33:56;15.70;99.90
46552;DHT22;32278;51.810;4.712;2022-07-29T05:36:22;15.70;99.90
46552;DHT22;32278;51.810;4.712;2022-07-29T05:38:48;15.70;99.90
46552;DHT22;32278;51.810;4.712;2022-07-29T05:41:13;15.80;99.90
46552;DHT22;32278;51.810;4.712;2022-07-29T05:43:39;15.90;99.90
46552;DHT22;32278;51.810;4.712;2022-07-29T05:46:04;15.90;99.90
46552;DHT22;32278;51.810;4.712;2022-07-29T05:48:30;15.90;99.90
46552;DHT22;32278;51.810;4.712;2022-07-29T05:50:55;15.90;99.90
46552;DHT22;32278;51.810;4.712;2022-07-29T05:53:21;15.90;99.90
46552;DHT22;32278;51.810;4.712;2022-07-29T05:55:50;16.00;99.90
46552;DHT22;32278;51.810;4.712;2022-07-29T05:58:16;15.80;99.90
46552;DHT22;32278;51.810;4.712;2022-07-29T06:00:42;15.80;99.90
46552;DHT22;32278;51.810;4.712;2022-07-29T06:03:07;15.90;99.90
46552;DHT22;32278;51.810;4.712;2022-07-29T06:05:33;15.90;99.90
46552;DHT22;32278;51.810;4.712;2022-07-29T06:07:58;15.90;99.90
46552;DHT22;32278;51.810;4.712;2022-07-29T06:10:24;15.80;99.90
46552;DHT22;32278;51.810;4.712;2022-07-29T06:12:49;15.90;99.90
46552;DHT22;32278;51.810;4.712;2022-07-29T06:15:15;16.00;99.90
46552;DHT22;32278;51.810;4.712;2022-07-29T06:17:41;16.10;99.90
46552;DHT22;32278;51.810;4.712;2022-07-29T06:20:06;16.20;99.90
46552;DHT22;32278;51.810;4.712;2022-07-29T06:22:32;16.30;99.90
46552;DHT22;32278;51.810;4.712;2022-07-29T06:24:58;16.50;99.90
46552;DHT22;32278;51.810;4.712;2022-07-29T06:27:23;16.70;99.90
46552;DHT22;32278;51.810;4.712;2022-07-29T06:29:49;16.80;99.90
46552;DHT22;32278;51.810;4.712;2022-07-29T06:32:14;16.60;99.90
46552;DHT22;32278;51.810;4.712;2022-07-29T06:34:40;16.60;99.90
46552;DHT22;32278;51.810;4.712;2022-07-29T06:37:09;16.70;99.90
46552;DHT22;32278;51.810;4.712;2022-07-29T06:39:37;16.90;99.90
46552;DHT22;32278;51.810;4.712;2022-07-29T06:42:06;17.20;99.90
46552;DHT22;32278;51.810;4.712;2022-07-29T06:44:32;17.30;99.90
46552;DHT22;32278;51.810;4.712;2022-07-29T06:47:01;17.40;99.90
46552;DHT22;32278;51.810;4.712;2022-07-29T06:49:26;17.50;99.90
46552;DHT22;32278;51.810;4.712;2022-07-29T06:51:53;17.40;99.90
46552;DHT22;32278;51.810;4.712;2022-07-29T06:54:19;17.10;99.90
46552;DHT22;32278;51.810;4.712;2022-07-29T06:56:45;16.90;99.90
46552;DHT22;32278;51.810;4.712;2022-07-29T06:59:12;17.00;99.90
46552;DHT22;32278;51.810;4.712;2022-07-29T07:01:40;17.20;99.90
46552;DHT22;32278;51.810;4.712;2022-07-29T07:04:06;17.30;99.90
46552;DHT22;32278;51.810;4.712;2022-07-29T07:06:33;17.20;99.90
46552;DHT22;32278;51.810;4.712;2022-07-29T07:08:59;17.10;99.90
46552;DHT22;32278;51.810;4.712;2022-07-29T07:11:24;17.20;99.90
46552;DHT22;32278;51.810;4.712;2022-07-29T07:13:50;17.50;99.90
46552;DHT22;32278;51.810;4.712;2022-07-29T07:16:16;17.50;99.90
46552;DHT22;32278;51.810;4.712;2022-07-29T07:18:41;17.70;99.90
46552;DHT22;32278;51.810;4.712;2022-07-29T07:21:07;18.00;99.90
46552;DHT22;32278;51.810;4.712;2022-07-29T07:23:33;18.30;99.90
46552;DHT22;32278;51.810;4.712;2022-07-29T07:25:58;18.40;99.90
46552;DHT22;32278;51.810;4.712;2022-07-29T07:28:24;18.40;99.90
46552;DHT22;32278;51.810;4.712;2022-07-29T07:30:49;18.60;99.90
46552;DHT22;32278;51.810;4.712;2022-07-29T07:33:15;18.50;99.90
46552;DHT22;32278;51.810;4.712;2022-07-29T07:35:41;18.50;99.90
46552;DHT22;32278;51.810;4.712;2022-07-29T07:38:07;18.80;99.90
46552;DHT22;32278;51.810;4.712;2022-07-29T07:40:32;18.90;99.90
46552;DHT22;32278;51.810;4.712;2022-07-29T07:42:58;18.90;99.90
46552;DHT22;32278;51.810;4.712;2022-07-29T07:45:24;18.50;99.90
46552;DHT22;32278;51.810;4.712;2022-07-29T07:47:49;18.80;99.90
46552;DHT22;32278;51.810;4.712;2022-07-29T07:50:15;18.90;99.90
46552;DHT22;32278;51.810;4.712;2022-07-29T07:52:54;19.10;99.90
46552;DHT22;32278;51.810;4.712;2022-07-29T07:55:23;19.10;99.90
46552;DHT22;32278;51.810;4.712;2022-07-29T07:57:48;19.40;99.90
46552;DHT22;32278;51.810;4.712;2022-07-29T08:00:15;19.30;99.90
46552;DHT22;32278;51.810;4.712;2022-07-29T08:02:41;19.40;99.90
46552;DHT22;32278;51.810;4.712;2022-07-29T08:05:08;19.40;99.90
46552;DHT22;32278;51.810;4.712;2022-07-29T08:07:34;19.80;99.90
46552;DHT22;32278;51.810;4.712;2022-07-29T08:09:59;20.00;99.90
46552;DHT22;32278;51.810;4.712;2022-07-29T08:12:25;19.80;99.90
46552;DHT22;32278;51.810;4.712;2022-07-29T08:14:50;19.90;99.90
46552;DHT22;32278;51.810;4.712;2022-07-29T08:17:16;19.90;99.90
46552;DHT22;32278;51.810;4.712;2022-07-29T08:19:41;19.50;99.90
46552;DHT22;32278;51.810;4.712;2022-07-29T08:22:07;19.80;99.90
46552;DHT22;32278;51.810;4.712;2022-07-29T08:24:32;20.30;99.90
46552;DHT22;32278;51.810;4.712;2022-07-29T08:27:18;20.00;99.90
46552;DHT22;32278;51.810;4.712;2022-07-29T08:29:45;20.10;99.90
46552;DHT22;32278;51.810;4.712;2022-07-29T08:32:11;20.30;99.90
46552;DHT22;32278;51.810;4.712;2022-07-29T08:34:36;20.60;99.90
46552;DHT22;32278;51.810;4.712;2022-07-29T08:37:02;20.60;99.90
46552;DHT22;32278;51.810;4.712;2022-07-29T08:39:27;20.50;99.90
46552;DHT22;32278;51.810;4.712;2022-07-29T08:41:53;20.60;99.90
46552;DHT22;32278;51.810;4.712;2022-07-29T08:44:20;20.70;99.90
46552;DHT22;32278;51.810;4.712;2022-07-29T08:46:47;20.70;99.90
46552;DHT22;32278;51.810;4.712;2022-07-29T08:49:13;20.80;99.90
46552;DHT22;32278;51.810;4.712;2022-07-29T08:51:40;20.30;99.90
46552;DHT22;32278;51.810;4.712;2022-07-29T08:54:06;20.60;99.90
46552;DHT22;32278;51.810;4.712;2022-07-29T08:56:33;20.60;99.90
46552;DHT22;32278;51.810;4.712;2022-07-29T08:59:02;20.60;99.90
46552;DHT22;32278;51.810;4.712;2022-07-29T09:01:29;20.90;99.90
46552;DHT22;32278;51.810;4.712;2022-07-29T09:03:59;21.00;99.90
46552;DHT22;32278;51.810;4.712;2022-07-29T09:06:31;21.40;99.90
46552;DHT22;32278;51.810;4.712;2022-07-29T09:08:59;21.50;99.90
46552;DHT22;32278;51.810;4.712;2022-07-29T09:11:25;21.40;99.90
46552;DHT22;32278;51.810;4.712;2022-07-29T09:13:51;21.20;99.90
46552;DHT22;32278;51.810;4.712;2022-07-29T09:16:16;21.10;99.90
46552;DHT22;32278;51.810;4.712;2022-07-29T09:18:44;20.90;99.90
46552;DHT22;32278;51.810;4.712;2022-07-29T09:21:12;21.50;99.90
46552;DHT22;32278;51.810;4.712;2022-07-29T09:26:41;22.00;99.90
46552;DHT22;32278;51.810;4.712;2022-07-29T09:29:14;21.90;99.90
46552;DHT22;32278;51.810;4.712;2022-07-29T09:31:42;21.60;99.90
46552;DHT22;32278;51.810;4.712;2022-07-29T09:34:11;21.80;99.90
46552;DHT22;32278;51.810;4.712;2022-07-29T09:36:42;21.80;99.90
46552;DHT22;32278;51.810;4.712;2022-07-29T09:39:07;21.80;99.90
46552;DHT22;32278;51.810;4.712;2022-07-29T09:44:11;22.60;99.90
46552;DHT22;32278;51.810;4.712;2022-07-29T09:46:36;22.90;99.90
46552;DHT22;32278;51.810;4.712;2022-07-29T09:49:12;22.90;99.90
46552;DHT22;32278;51.810;4.712;2022-07-29T09:51:38;22.50;99.90
46552;DHT22;32278;51.810;4.712;2022-07-29T09:54:24;22.80;99.90
46552;DHT22;32278;51.810;4.712;2022-07-29T09:56:52;22.70;99.90
46552;DHT22;32278;51.810;4.712;2022-07-29T09:59:18;23.10;99.90
46552;DHT22;32278;51.810;4.712;2022-07-29T10:01:45;23.20;99.90
46552;DHT22;32278;51.810;4.712;2022-07-29T10:04:11;23.10;99.90
46552;DHT22;32278;51.810;4.712;2022-07-29T10:06:55;23.20;99.90
46552;DHT22;32278;51.810;4.712;2022-07-29T10:09:21;23.30;99.90
46552;DHT22;32278;51.810;4.712;2022-07-29T10:12:06;23.20;99.90
46552;DHT22;32278;51.810;4.712;2022-07-29T10:14:32;23.30;99.90
46552;DHT22;32278;51.810;4.712;2022-07-29T10:17:04;23.10;99.90
46552;DHT22;32278;51.810;4.712;2022-07-29T10:19:30;23.30;99.90
46552;DHT22;32278;51.810;4.712;2022-07-29T10:21:58;23.50;99.90
46552;DHT22;32278;51.810;4.712;2022-07-29T10:24:26;23.80;99.90
46552;DHT22;32278;51.810;4.712;2022-07-29T10:26:54;24.00;99.90
46552;DHT22;32278;51.810;4.712;2022-07-29T10:29:20;23.80;99.90
46552;DHT22;32278;51.810;4.712;2022-07-29T10:34:34;23.90;99.90
46552;DHT22;32278;51.810;4.712;2022-07-29T10:37:10;23.60;99.90
46552;DHT22;32278;51.810;4.712;2022-07-29T10:42:49;24.30;99.90
46552;DHT22;32278;51.810;4.712;2022-07-29T10:45:17;24.60;99.90
46552;DHT22;32278;51.810;4.712;2022-07-29T10:47:42;24.50;95.90
46552;DHT22;32278;51.810;4.712;2022-07-29T10:50:08;23.90;89.90
46552;DHT22;32278;51.810;4.712;2022-07-29T10:55:47;24.00;82.50
46552;DHT22;32278;51.810;4.712;2022-07-29T10:58:17;24.40;75.40
46552;DHT22;32278;51.810;4.712;2022-07-29T11:00:43;24.80;78.50
46552;DHT22;32278;51.810;4.712;2022-07-29T11:03:09;24.50;79.40
46552;DHT22;32278;51.810;4.712;2022-07-29T11:05:55;24.60;75.40
46552;DHT22;32278;51.810;4.712;2022-07-29T11:08:21;24.80;79.00
46552;DHT22;32278;51.810;4.712;2022-07-29T11:10:50;24.30;84.60
46552;DHT22;32278;51.810;4.712;2022-07-29T11:16:09;25.30;67.30
46552;DHT22;32278;51.810;4.712;2022-07-29T11:18:34;25.20;66.70
46552;DHT22;32278;51.810;4.712;2022-07-29T11:21:00;24.90;76.20
46552;DHT22;32278;51.810;4.712;2022-07-29T11:23:30;24.80;68.10
46552;DHT22;32278;51.810;4.712;2022-07-29T11:29:01;25.60;64.20
46552;DHT22;32278;51.810;4.712;2022-07-29T11:31:36;25.30;56.70
46552;DHT22;32278;51.810;4.712;2022-07-29T11:34:28;25.00;58.90
46552;DHT22;32278;51.810;4.712;2022-07-29T11:44:57;26.00;62.50
46552;DHT22;32278;51.810;4.712;2022-07-29T11:47:28;26.40;54.30
46552;DHT22;32278;51.810;4.712;2022-07-29T11:49:55;27.00;45.60
46552;DHT22;32278;51.810;4.712;2022-07-29T11:52:22;26.50;38.70
46552;DHT22;32278;51.810;4.712;2022-07-29T11:54:49;26.90;29.90
46552;DHT22;32278;51.810;4.712;2022-07-29T11:57:17;26.10;37.90
46552;DHT22;32278;51.810;4.712;2022-07-29T11:59:45;26.10;39.50
46552;DHT22;32278;51.810;4.712;2022-07-29T12:02:11;26.40;36.90
46552;DHT22;32278;51.810;4.712;2022-07-29T12:04:55;26.20;31.30
46552;DHT22;32278;51.810;4.712;2022-07-29T12:07:31;26.00;36.90
46552;DHT22;32278;51.810;4.712;2022-07-29T12:09:57;26.00;39.00
46552;DHT22;32278;51.810;4.712;2022-07-29T12:12:23;26.20;41.70
46552;DHT22;32278;51.810;4.712;2022-07-29T12:14:49;26.10;38.70
46552;DHT22;32278;51.810;4.712;2022-07-29T12:17:28;26.00;36.90
46552;DHT22;32278;51.810;4.712;2022-07-29T12:19:54;26.00;36.00
46552;DHT22;32278;51.810;4.712;2022-07-29T12:22:32;26.00;39.60
46552;DHT22;32278;51.810;4.712;2022-07-29T12:25:22;25.80;48.10
46552;DHT22;32278;51.810;4.712;2022-07-29T12:27:57;25.70;51.10
46552;DHT22;32278;51.810;4.712;2022-07-29T12:30:22;25.80;50.10
46552;DHT22;32278;51.810;4.712;2022-07-29T12:32:48;26.20;47.40
46552;DHT22;32278;51.810;4.712;2022-07-29T12:35:15;26.30;41.10
46552;DHT22;32278;51.810;4.712;2022-07-29T12:37:43;26.00;39.50
46552;DHT22;32278;51.810;4.712;2022-07-29T12:40:11;25.70;42.50
46552;DHT22;32278;51.810;4.712;2022-07-29T12:42:38;26.20;45.90
46552;DHT22;32278;51.810;4.712;2022-07-29T12:45:04;26.30;36.90
46552;DHT22;32278;51.810;4.712;2022-07-29T12:47:31;26.40;34.20
46552;DHT22;32278;51.810;4.712;2022-07-29T12:50:10;26.90;31.70
46552;DHT22;32278;51.810;4.712;2022-07-29T12:52:36;26.60;31.30
46552;DHT22;32278;51.810;4.712;2022-07-29T12:55:03;25.70;39.40
46552;DHT22;32278;51.810;4.712;2022-07-29T12:57:29;25.80;48.70
46552;DHT22;32278;51.810;4.712;2022-07-29T13:00:08;25.90;47.20
46552;DHT22;32278;51.810;4.712;2022-07-29T13:02:35;26.20;41.90
46552;DHT22;32278;51.810;4.712;2022-07-29T13:05:01;25.70;43.00
46552;DHT22;32278;51.810;4.712;2022-07-29T13:07:28;25.80;50.40
46552;DHT22;32278;51.810;4.712;2022-07-29T13:12:38;25.80;49.80
46552;DHT22;32278;51.810;4.712;2022-07-29T13:15:14;26.10;48.30
46552;DHT22;32278;51.810;4.712;2022-07-29T13:17:42;26.10;47.40
46552;DHT22;32278;51.810;4.712;2022-07-29T13:20:11;26.30;46.10
46552;DHT22;32278;51.810;4.712;2022-07-29T13:22:42;25.70;37.30
46552;DHT22;32278;51.810;4.712;2022-07-29T13:25:09;25.20;43.70
46552;DHT22;32278;51.810;4.712;2022-07-29T13:27:37;25.50;48.00
46552;DHT22;32278;51.810;4.712;2022-07-29T13:30:06;25.40;49.80
46552;DHT22;32278;51.810;4.712;2022-07-29T13:32:32;25.60;44.10
46552;DHT22;32278;51.810;4.712;2022-07-29T13:35:04;25.10;51.80
46552;DHT22;32278;51.810;4.712;2022-07-29T13:37:30;25.20;53.60
46552;DHT22;32278;51.810;4.712;2022-07-29T13:39:58;25.10;51.80
46552;DHT22;32278;51.810;4.712;2022-07-29T13:42:25;25.50;53.10
46552;DHT22;32278;51.810;4.712;2022-07-29T13:44:51;25.50;55.30
46552;DHT22;32278;51.810;4.712;2022-07-29T13:47:21;25.30;54.60
46552;DHT22;32278;51.810;4.712;2022-07-29T13:49:47;25.00;64.80
46552;DHT22;32278;51.810;4.712;2022-07-29T13:52:13;24.60;67.90
46552;DHT22;32278;51.810;4.712;2022-07-29T13:54:38;24.40;69.80
46552;DHT22;32278;51.810;4.712;2022-07-29T13:57:04;24.50;61.90
46552;DHT22;32278;51.810;4.712;2022-07-29T13:59:30;24.80;57.10
46552;DHT22;32278;51.810;4.712;2022-07-29T14:01:55;25.20;52.70
46552;DHT22;32278;51.810;4.712;2022-07-29T14:04:21;25.00;40.00
46552;DHT22;32278;51.810;4.712;2022-07-29T14:06:49;24.90;38.40
46552;DHT22;32278;51.810;4.712;2022-07-29T14:09:14;25.00;34.30
46552;DHT22;32278;51.810;4.712;2022-07-29T14:11:40;24.80;36.60
46552;DHT22;32278;51.810;4.712;2022-07-29T14:14:06;24.90;41.00
46552;DHT22;32278;51.810;4.712;2022-07-29T14:16:32;25.20;37.10
46552;DHT22;32278;51.810;4.712;2022-07-29T14:18:57;25.20;35.70
46552;DHT22;32278;51.810;4.712;2022-07-29T14:21:23;25.00;40.90
46552;DHT22;32278;51.810;4.712;2022-07-29T14:23:49;24.80;43.00
46552;DHT22;32278;51.810;4.712;2022-07-29T14:26:15;24.70;46.20
46552;DHT22;32278;51.810;4.712;2022-07-29T14:28:40;24.80;46.50
46552;DHT22;32278;51.810;4.712;2022-07-29T14:31:06;24.50;47.70
46552;DHT22;32278;51.810;4.712;2022-07-29T14:33:31;24.50;53.00
46552;DHT22;32278;51.810;4.712;2022-07-29T14:35:57;24.40;55.20
46552;DHT22;32278;51.810;4.712;2022-07-29T14:38:22;24.50;60.40
46552;DHT22;32278;51.810;4.712;2022-07-29T14:40:49;24.50;61.60
46552;DHT22;32278;51.810;4.712;2022-07-29T14:43:14;24.60;60.90
46552;DHT22;32278;51.810;4.712;2022-07-29T14:45:40;24.60;60.80
46552;DHT22;32278;51.810;4.712;2022-07-29T14:48:06;24.70;63.50
46552;DHT22;32278;51.810;4.712;2022-07-29T14:50:32;24.80;60.80
46552;DHT22;32278;51.810;4.712;2022-07-29T14:52:58;24.90;56.20
46552;DHT22;32278;51.810;4.712;2022-07-29T14:55:23;25.00;56.20
46552;DHT22;32278;51.810;4.712;2022-07-29T14:57:49;24.60;52.10
46552;DHT22;32278;51.810;4.712;2022-07-29T15:00:16;24.50;59.40
46552;DHT22;32278;51.810;4.712;2022-07-29T15:03:38;24.50;57.20
46552;DHT22;32278;51.810;4.712;2022-07-29T15:06:06;24.30;58.10
46552;DHT22;32278;51.810;4.712;2022-07-29T15:08:31;24.40;57.60
46552;DHT22;32278;51.810;4.712;2022-07-29T15:10:57;24.50;59.00
46552;DHT22;32278;51.810;4.712;2022-07-29T15:13:25;24.60;54.50
46552;DHT22;32278;51.810;4.712;2022-07-29T15:15:51;24.60;55.80
46552;DHT22;32278;51.810;4.712;2022-07-29T15:18:17;25.00;49.70
46552;DHT22;32278;51.810;4.712;2022-07-29T15:20:42;25.00;42.90
46552;DHT22;32278;51.810;4.712;2022-07-29T15:23:10;25.00;44.40
46552;DHT22;32278;51.810;4.712;2022-07-29T15:25:38;25.00;44.30
46552;DHT22;32278;51.810;4.712;2022-07-29T15:28:04;25.00;42.00
46552;DHT22;32278;51.810;4.712;2022-07-29T15:30:32;25.00;42.80
46552;DHT22;32278;51.810;4.712;2022-07-29T15:32:59;25.00;40.40
46552;DHT22;32278;51.810;4.712;2022-07-29T15:35:25;25.10;37.80
46552;DHT22;32278;51.810;4.712;2022-07-29T15:37:50;24.80;39.90
46552;DHT22;32278;51.810;4.712;2022-07-29T15:40:16;24.90;43.10
46552;DHT22;32278;51.810;4.712;2022-07-29T15:42:41;25.20;40.10
46552;DHT22;32278;51.810;4.712;2022-07-29T15:45:07;25.40;37.20
46552;DHT22;32278;51.810;4.712;2022-07-29T15:47:35;25.40;32.60
46552;DHT22;32278;51.810;4.712;2022-07-29T15:50:01;25.10;33.60
46552;DHT22;32278;51.810;4.712;2022-07-29T15:52:27;24.90;35.00
46552;DHT22;32278;51.810;4.712;2022-07-29T15:54:56;24.80;38.90
46552;DHT22;32278;51.810;4.712;2022-07-29T15:57:22;24.80;37.10
46552;DHT22;32278;51.810;4.712;2022-07-29T15:59:48;24.60;35.60
46552;DHT22;32278;51.810;4.712;2022-07-29T16:02:13;24.60;40.40
46552;DHT22;32278;51.810;4.712;2022-07-29T16:04:39;24.70;40.30
46552;DHT22;32278;51.810;4.712;2022-07-29T16:07:05;24.70;36.10
46552;DHT22;32278;51.810;4.712;2022-07-29T16:09:31;24.60;35.00
46552;DHT22;32278;51.810;4.712;2022-07-29T16:11:57;24.70;36.70
46552;DHT22;32278;51.810;4.712;2022-07-29T16:14:23;24.90;38.00
46552;DHT22;32278;51.810;4.712;2022-07-29T16:16:48;25.00;36.50